createdAt,value
2023-02-23T00:02:20.152Z,5.85
2023-02-23T00:04:49.791Z,7.18
2023-02-23T00:07:20.048Z,6.90
2023-02-23T00:09:48.302Z,6.35
2023-02-23T00:12:17.665Z,5.90
2023-02-23T00:14:46.193Z,6.38
2023-02-23T00:17:17.697Z,6.70
2023-02-23T00:19:50.470Z,6.45
2023-02-23T00:22:18.925Z,6.78
2023-02-23T00:24:48.226Z,5.85
2023-02-23T00:27:20.069Z,6.30
2023-02-23T00:29:49.602Z,5.82
2023-02-23T00:32:20.089Z,6.07
2023-02-23T00:34:49.873Z,6.35
2023-02-23T00:37:22.057Z,5.47
2023-02-23T00:39:50.380Z,5.40
2023-02-23T00:42:18.605Z,6.07
2023-02-23T00:44:48.788Z,6.35
2023-02-23T00:47:17.151Z,5.65
2023-02-23T00:49:46.106Z,6.30
2023-02-23T00:52:15.837Z,5.75
2023-02-23T00:54:45.468Z,6.10
2023-02-23T00:57:16.115Z,6.50
2023-02-23T00:59:44.381Z,6.03
2023-02-23T01:02:13.116Z,6.68
2023-02-23T01:04:41.416Z,5.82
2023-02-23T01:07:13.034Z,5.80
2023-02-23T01:09:41.830Z,5.93
2023-02-23T01:12:17.132Z,6.88
2023-02-23T01:14:46.437Z,5.82
2023-02-23T01:17:15.143Z,6.95
2023-02-23T01:19:44.750Z,5.80
2023-02-23T01:22:13.512Z,5.43
2023-02-23T01:24:42.858Z,6.95
2023-02-23T01:27:11.190Z,6.32
2023-02-23T01:29:40.838Z,7.47
2023-02-23T01:32:09.594Z,7.25
2023-02-23T01:34:38.009Z,6.28
2023-02-23T01:37:06.375Z,6.93
2023-02-23T01:39:34.764Z,7.05
2023-02-23T01:42:05.405Z,6.55
2023-02-23T01:45:16.647Z,7.18
2023-02-23T01:47:47.972Z,6.18
2023-02-23T01:50:17.392Z,6.30
2023-02-23T01:52:48.146Z,7.03
2023-02-23T01:55:24.462Z,6.18
2023-02-23T01:57:57.661Z,6.65
2023-02-23T02:00:27.900Z,5.90
2023-02-23T02:02:58.273Z,6.70
2023-02-23T02:05:29.963Z,6.55
2023-02-23T02:08:00.019Z,6.50
2023-02-23T02:10:44.599Z,4.70
2023-02-23T02:13:18.338Z,6.05
2023-02-23T02:16:13.507Z,6.40
2023-02-23T02:19:00.959Z,7.35
2023-02-23T02:22:06.657Z,6.30
2023-02-23T02:25:21.960Z,6.68
2023-02-23T02:28:23.341Z,6.72
2023-02-23T02:31:22.205Z,8.18
2023-02-23T02:34:15.930Z,7.00
2023-02-23T02:37:12.287Z,7.90
2023-02-23T02:39:53.659Z,7.40
2023-02-23T02:42:30.564Z,7.45
2023-02-23T02:45:04.636Z,8.20
2023-02-23T02:47:40.015Z,7.50
2023-02-23T02:50:12.463Z,8.25
2023-02-23T02:52:47.045Z,7.13
2023-02-23T02:55:23.786Z,6.47
2023-02-23T02:57:57.709Z,7.07
2023-02-23T03:00:48.685Z,6.22
2023-02-23T03:03:48.221Z,7.47
2023-02-23T03:06:34.725Z,6.75
2023-02-23T03:09:35.334Z,6.65
2023-02-23T03:12:26.250Z,7.68
2023-02-23T03:15:22.750Z,6.53
2023-02-23T03:21:05.873Z,7.97
2023-02-23T03:24:05.506Z,7.85
2023-02-23T03:26:59.695Z,7.95
2023-02-23T03:29:52.325Z,6.65
2023-02-23T03:32:45.349Z,6.40
2023-02-23T03:35:38.383Z,8.23
2023-02-23T03:38:30.422Z,7.03
2023-02-23T03:41:19.067Z,7.43
2023-02-23T03:44:12.265Z,7.53
2023-02-23T03:47:00.312Z,7.28
2023-02-23T03:49:52.607Z,7.43
2023-02-23T03:52:43.358Z,6.93
2023-02-23T03:55:33.598Z,6.97
2023-02-23T03:58:21.552Z,6.57
2023-02-23T04:01:11.724Z,8.18
2023-02-23T04:04:00.594Z,6.22
2023-02-23T04:06:50.804Z,8.27
2023-02-23T04:09:37.217Z,7.18
2023-02-23T04:12:29.114Z,6.80
2023-02-23T04:15:01.913Z,6.55
2023-02-23T04:17:36.894Z,6.07
2023-02-23T04:20:07.076Z,6.82
2023-02-23T04:22:36.033Z,6.90
2023-02-23T04:25:06.062Z,7.63
2023-02-23T04:27:34.756Z,6.13
2023-02-23T04:30:03.757Z,7.47
2023-02-23T04:32:34.454Z,6.60
2023-02-23T04:35:02.712Z,6.00
2023-02-23T04:37:31.699Z,6.40
2023-02-23T04:39:59.939Z,8.52
2023-02-23T04:42:28.818Z,7.38
2023-02-23T04:44:57.036Z,7.30
2023-02-23T04:47:25.610Z,7.32
2023-02-23T04:49:55.209Z,7.53
2023-02-23T04:52:23.497Z,6.45
2023-02-23T04:54:51.710Z,6.85
2023-02-23T04:57:20.506Z,7.65
2023-02-23T04:59:48.700Z,6.65
2023-02-23T05:02:17.297Z,7.60
2023-02-23T05:04:45.679Z,7.18
2023-02-23T05:07:15.782Z,7.55
2023-02-23T05:09:43.939Z,7.78
2023-02-23T05:12:12.536Z,7.45
2023-02-23T05:14:40.759Z,7.10
2023-02-23T05:17:09.370Z,7.50
2023-02-23T05:19:38.006Z,6.40
2023-02-23T05:22:06.715Z,6.53
2023-02-23T05:24:36.711Z,6.93
2023-02-23T05:27:05.069Z,7.40
2023-02-23T05:29:33.259Z,6.60
2023-02-23T05:32:02.322Z,7.22
2023-02-23T05:34:30.643Z,7.05
2023-02-23T05:36:58.863Z,6.10
2023-02-23T05:39:27.112Z,7.63
2023-02-23T05:41:56.681Z,7.70
2023-02-23T05:44:25.361Z,7.25
2023-02-23T05:46:53.627Z,7.13
2023-02-23T05:49:21.836Z,6.95
2023-02-23T05:51:50.104Z,7.25
2023-02-23T05:54:18.332Z,6.90
2023-02-23T05:56:46.604Z,7.28
2023-02-23T05:59:17.427Z,6.13
2023-02-23T06:01:46.079Z,7.85
2023-02-23T06:04:14.660Z,6.57
2023-02-23T06:06:43.390Z,7.35
2023-02-23T06:09:11.667Z,7.50
2023-02-23T06:11:39.934Z,8.23
2023-02-23T06:14:08.286Z,7.85
2023-02-23T06:16:38.216Z,7.53
2023-02-23T06:19:06.616Z,6.45
2023-02-23T06:21:35.348Z,7.13
2023-02-23T06:24:04.113Z,8.52
2023-02-23T06:26:32.460Z,7.35
2023-02-23T06:29:00.692Z,7.07
2023-02-23T06:31:29.342Z,7.72
2023-02-23T06:33:58.948Z,8.07
2023-02-23T06:36:27.318Z,7.75
2023-02-23T06:38:58.051Z,7.45
2023-02-23T06:41:27.036Z,7.60
2023-02-23T06:43:55.602Z,8.68
2023-02-23T06:46:25.004Z,8.40
2023-02-23T06:48:56.738Z,8.77
2023-02-23T06:51:26.389Z,7.25
2023-02-23T06:53:54.647Z,6.75
2023-02-23T06:56:23.567Z,7.38
2023-02-23T06:58:51.835Z,6.20
2023-02-23T07:01:21.554Z,8.07
2023-02-23T07:03:49.887Z,6.15
2023-02-23T07:06:18.673Z,7.25
2023-02-23T07:08:48.278Z,7.00
2023-02-23T07:11:18.893Z,7.60
2023-02-23T07:13:47.263Z,6.65
2023-02-23T07:16:16.424Z,7.40
2023-02-23T07:18:45.760Z,7.47
2023-02-23T07:21:25.299Z,7.68
2023-02-23T07:23:56.874Z,7.82
2023-02-23T07:26:31.271Z,6.65
2023-02-23T07:28:59.508Z,7.70
2023-02-23T07:31:28.010Z,6.57
2023-02-23T07:33:56.317Z,6.65
2023-02-23T07:36:25.339Z,7.78
2023-02-23T07:38:54.339Z,7.20
2023-02-23T07:41:24.329Z,6.68
2023-02-23T07:43:52.539Z,6.63
2023-02-23T07:46:21.178Z,7.28
2023-02-23T07:48:49.370Z,6.85
2023-02-23T07:51:18.346Z,7.07
2023-02-23T07:53:47.132Z,7.90
2023-02-23T07:56:15.857Z,8.23
2023-02-23T07:58:46.063Z,6.90
2023-02-23T08:01:15.136Z,7.40
2023-02-23T08:03:49.477Z,7.80
2023-02-23T08:06:18.428Z,7.50
2023-02-23T08:08:46.792Z,6.70
2023-02-23T08:11:15.903Z,7.22
2023-02-23T08:13:45.608Z,6.63
2023-02-23T08:16:16.570Z,7.88
2023-02-23T08:18:44.834Z,6.93
2023-02-23T08:21:13.503Z,8.02
2023-02-23T08:23:41.774Z,8.25
2023-02-23T08:26:10.485Z,7.00
2023-02-23T08:28:41.799Z,6.97
2023-02-23T08:31:12.284Z,8.25
2023-02-23T08:33:41.342Z,7.65
2023-02-23T08:36:11.046Z,7.60
2023-02-23T08:38:39.331Z,6.95
2023-02-23T08:41:08.101Z,6.60
2023-02-23T08:43:36.365Z,6.78
2023-02-23T08:46:04.694Z,8.10
2023-02-23T08:48:34.717Z,7.35
2023-02-23T08:51:03.751Z,7.38
2023-02-23T08:53:31.960Z,7.43
2023-02-23T08:56:02.022Z,7.68
2023-02-23T08:58:31.635Z,8.50
2023-02-23T09:01:00.128Z,8.05
2023-02-23T09:03:30.675Z,8.85
2023-02-23T09:06:08.273Z,8.98
2023-02-23T09:08:36.914Z,8.82
2023-02-23T09:11:05.207Z,8.68
2023-02-23T09:13:55.755Z,9.43
2023-02-23T09:16:35.835Z,8.50
2023-02-23T09:19:04.606Z,8.60
2023-02-23T09:21:34.438Z,9.02
2023-02-23T09:24:02.718Z,8.85
2023-02-23T09:26:32.514Z,9.20
2023-02-23T09:29:02.758Z,9.63
2023-02-23T09:31:31.072Z,10.30
2023-02-23T09:34:00.388Z,9.48
2023-02-23T09:36:29.642Z,9.80
2023-02-23T09:38:59.562Z,9.88
2023-02-23T09:42:01.533Z,10.40
2023-02-23T09:44:50.726Z,8.75
2023-02-23T09:47:30.737Z,8.43
2023-02-23T09:50:01.545Z,7.90
2023-02-23T09:52:38.181Z,9.25
2023-02-23T09:55:11.068Z,9.80
2023-02-23T09:57:41.905Z,9.38
2023-02-23T10:00:19.189Z,9.45
2023-02-23T10:03:08.978Z,9.77
2023-02-23T10:05:43.964Z,8.52
2023-02-23T10:08:26.013Z,9.55
2023-02-23T10:11:08.032Z,9.73
2023-02-23T10:13:46.500Z,10.68
2023-02-23T10:16:24.473Z,10.52
2023-02-23T10:19:00.491Z,11.70
2023-02-23T10:21:35.306Z,10.93
2023-02-23T10:24:07.265Z,10.50
2023-02-23T10:26:44.415Z,10.75
2023-02-23T10:29:23.165Z,11.05
2023-02-23T10:31:55.706Z,11.02
2023-02-23T10:34:26.626Z,11.10
2023-02-23T10:37:00.037Z,10.43
2023-02-23T10:39:30.119Z,10.55
2023-02-23T10:42:03.819Z,11.90
2023-02-23T10:44:32.730Z,11.07
2023-02-23T10:47:03.897Z,11.57
2023-02-23T10:49:41.494Z,12.18
2023-02-23T10:52:13.702Z,10.43
2023-02-23T10:54:45.750Z,10.73
2023-02-23T10:57:24.595Z,11.43
2023-02-23T11:00:27.686Z,11.45
2023-02-23T11:02:59.244Z,10.10
2023-02-23T11:05:33.308Z,11.82
2023-02-23T11:08:21.696Z,11.45
2023-02-23T11:11:02.227Z,11.43
2023-02-23T11:13:38.629Z,14.50
2023-02-23T11:16:11.264Z,11.35
2023-02-23T11:18:41.845Z,10.48
2023-02-23T11:21:19.131Z,11.43
2023-02-23T11:23:51.135Z,11.85
2023-02-23T11:26:38.217Z,11.90
2023-02-23T11:29:15.975Z,11.98
2023-02-23T11:31:50.639Z,11.48
2023-02-23T11:34:28.746Z,12.15
2023-02-23T11:37:03.274Z,12.18
2023-02-23T11:39:32.403Z,12.07
2023-02-23T11:42:16.111Z,12.88
2023-02-23T11:44:51.677Z,12.80
2023-02-23T11:47:22.644Z,12.80
2023-02-23T11:49:51.941Z,11.88
2023-02-23T11:52:23.250Z,13.07
2023-02-23T11:54:56.229Z,14.95
2023-02-23T11:57:27.573Z,14.05
2023-02-23T11:59:59.254Z,13.48
2023-02-23T12:02:29.629Z,13.18
2023-02-23T12:05:06.821Z,12.70
2023-02-23T12:07:41.814Z,13.02
2023-02-23T12:10:17.707Z,13.45
2023-02-23T12:12:58.524Z,12.70
2023-02-23T12:15:37.256Z,12.45
2023-02-23T12:18:15.406Z,12.43
2023-02-23T12:20:48.620Z,12.98
2023-02-23T12:23:21.647Z,14.00
2023-02-23T12:25:56.111Z,14.20
2023-02-23T12:28:30.556Z,12.68
2023-02-23T12:31:03.952Z,12.98
2023-02-23T12:33:37.653Z,13.88
2023-02-23T12:36:15.674Z,13.15
2023-02-23T12:38:50.521Z,12.82
2023-02-23T12:41:35.226Z,14.32
2023-02-23T12:44:15.729Z,12.52
2023-02-23T12:46:51.228Z,14.27
2023-02-23T12:49:28.583Z,13.68
2023-02-23T12:52:02.619Z,13.80
2023-02-23T12:54:33.862Z,12.43
2023-02-23T12:57:12.965Z,13.40
2023-02-23T13:00:04.322Z,13.52
2023-02-23T13:02:42.057Z,15.73
2023-02-23T13:05:24.564Z,14.30
2023-02-23T13:08:12.826Z,14.02
2023-02-23T13:10:49.922Z,16.05
2023-02-23T13:13:28.566Z,15.48
2023-02-23T13:16:02.889Z,13.43
2023-02-23T13:18:37.514Z,13.23
2023-02-23T13:21:11.307Z,14.45
2023-02-23T13:23:44.307Z,14.80
2023-02-23T13:26:19.908Z,14.75
2023-02-23T13:33:58.973Z,15.38
2023-02-23T13:36:30.622Z,14.48
2023-02-23T13:39:19.124Z,14.95
2023-02-23T13:41:54.569Z,15.40
2023-02-23T13:44:30.204Z,15.38
2023-02-23T13:47:08.162Z,15.35
2023-02-23T13:49:46.585Z,16.80
2023-02-23T13:52:24.270Z,15.32
2023-02-23T13:54:56.482Z,16.13
2023-02-23T13:57:26.281Z,16.83
2023-02-23T13:59:54.696Z,17.67
2023-02-23T14:02:37.032Z,17.25
2023-02-23T14:05:18.421Z,14.73
2023-02-23T14:07:50.021Z,14.82
2023-02-23T14:10:22.595Z,15.45
2023-02-23T14:13:09.753Z,17.15
2023-02-23T14:15:48.406Z,15.52
2023-02-23T14:18:34.218Z,14.88
2023-02-23T14:21:19.204Z,15.85
2023-02-23T14:23:53.013Z,16.50
2023-02-23T14:26:42.306Z,17.70
2023-02-23T14:29:31.943Z,16.23
2023-02-23T14:32:29.363Z,18.17
2023-02-23T14:35:00.040Z,16.48
2023-02-23T14:37:33.665Z,17.08
2023-02-23T14:40:11.653Z,15.57
2023-02-23T14:42:41.008Z,17.90
2023-02-23T14:45:20.030Z,17.38
2023-02-23T14:47:52.185Z,15.95
2023-02-23T14:50:27.450Z,17.42
2023-02-23T14:52:58.364Z,17.05
2023-02-23T14:55:29.395Z,16.20
2023-02-23T14:57:58.375Z,17.98
2023-02-23T15:00:28.462Z,17.52
2023-02-23T15:03:00.257Z,16.83
2023-02-23T15:05:31.151Z,17.55
2023-02-23T15:08:05.070Z,15.45
2023-02-23T15:10:36.611Z,17.10
2023-02-23T15:13:11.970Z,20.23
2023-02-23T15:15:45.959Z,18.38
2023-02-23T15:18:23.095Z,23.65
2023-02-23T15:20:51.847Z,16.45
2023-02-23T15:23:22.094Z,17.77
2023-02-23T15:25:51.289Z,18.27
2023-02-23T15:28:25.370Z,18.38
2023-02-23T15:30:55.076Z,18.17
2023-02-23T15:33:28.631Z,17.58
2023-02-23T15:36:04.663Z,18.77
2023-02-23T15:38:43.341Z,18.85
2023-02-23T15:41:23.196Z,19.23
2023-02-23T15:43:51.878Z,18.13
2023-02-23T15:46:25.451Z,19.60
2023-02-23T15:48:56.162Z,16.88
2023-02-23T15:51:33.669Z,18.05
2023-02-23T15:54:13.904Z,18.52
2023-02-23T15:56:46.997Z,19.75
2023-02-23T15:59:24.102Z,18.50
2023-02-23T16:01:55.283Z,19.10
2023-02-23T16:04:32.895Z,18.33
2023-02-23T16:07:17.201Z,17.95
2023-02-23T16:09:52.874Z,18.90
2023-02-23T16:14:55.151Z,19.58
2023-02-23T16:17:28.022Z,18.83
2023-02-23T16:20:11.199Z,20.98
2023-02-23T16:22:41.013Z,22.35
2023-02-23T16:25:16.020Z,21.02
2023-02-23T16:27:45.442Z,21.17
2023-02-23T16:30:23.339Z,19.55
2023-02-23T16:33:06.070Z,19.90
2023-02-23T16:35:41.028Z,20.00
2023-02-23T16:38:14.373Z,22.02
2023-02-23T16:40:45.509Z,20.85
2023-02-23T16:43:13.760Z,19.85
2023-02-23T16:45:44.130Z,20.98
2023-02-23T16:48:15.030Z,23.50
2023-02-23T16:50:43.669Z,22.85
2023-02-23T16:53:12.508Z,21.48
2023-02-23T16:55:48.380Z,21.58
2023-02-23T16:58:20.650Z,22.80
2023-02-23T17:00:49.100Z,22.38
2023-02-23T17:03:20.502Z,21.52
2023-02-23T17:05:49.976Z,23.50
2023-02-23T17:08:18.386Z,22.80
2023-02-23T17:10:50.343Z,23.73
2023-02-23T17:13:20.339Z,23.35
2023-02-23T17:15:51.817Z,22.55
2023-02-23T17:20:58.787Z,23.95
2023-02-23T17:23:30.086Z,23.23
2023-02-23T17:26:01.095Z,22.35
2023-02-23T17:28:29.305Z,23.05
2023-02-23T17:30:58.487Z,26.48
2023-02-23T17:33:28.030Z,26.58
2023-02-23T17:35:56.986Z,25.10
2023-02-23T17:38:34.407Z,26.60
2023-02-23T17:41:07.128Z,25.23
2023-02-23T17:43:35.772Z,24.55
2023-02-23T17:46:04.931Z,22.92
2023-02-23T17:48:34.655Z,31.10
2023-02-23T17:51:05.396Z,26.15
2023-02-23T17:53:34.115Z,30.52
2023-02-23T17:56:02.756Z,25.30
2023-02-23T17:58:32.634Z,25.15
2023-02-23T18:01:03.438Z,29.02
2023-02-23T18:03:34.543Z,38.60
2023-02-23T18:06:04.909Z,26.95
2023-02-23T18:08:33.601Z,26.77
2023-02-23T18:11:02.583Z,25.15
2023-02-23T18:13:33.857Z,26.33
2023-02-23T18:16:06.007Z,26.20
2023-02-23T18:18:34.476Z,24.98
2023-02-23T18:21:03.343Z,26.88
2023-02-23T18:23:32.732Z,26.17
2023-02-23T18:26:10.010Z,25.67
2023-02-23T18:28:41.101Z,25.00
2023-02-23T18:31:09.777Z,26.75
2023-02-23T18:33:38.100Z,27.88
2023-02-23T18:36:16.875Z,25.88
2023-02-23T18:38:45.098Z,27.90
2023-02-23T18:41:13.882Z,26.50
2023-02-23T18:43:43.692Z,25.45
2023-02-23T18:46:13.679Z,27.27
2023-02-23T18:48:42.336Z,26.13
2023-02-23T18:51:14.752Z,26.42
2023-02-23T18:53:44.651Z,22.40
2023-02-23T18:56:15.403Z,19.85
2023-02-23T18:58:46.088Z,17.92
2023-02-23T19:01:18.098Z,17.92
2023-02-23T19:03:46.786Z,15.75
2023-02-23T19:06:16.174Z,20.05
2023-02-23T19:08:45.143Z,16.30
2023-02-23T19:11:13.780Z,13.55
2023-02-23T19:13:42.047Z,16.23
2023-02-23T19:16:11.754Z,15.13
2023-02-23T19:18:40.034Z,16.55
2023-02-23T19:21:09.331Z,18.75
2023-02-23T19:23:38.649Z,16.60
2023-02-23T19:26:07.396Z,19.30
2023-02-23T19:28:35.631Z,17.40
2023-02-23T19:31:05.288Z,16.58
2023-02-23T19:33:35.612Z,20.58
2023-02-23T19:36:06.974Z,17.77
2023-02-23T19:38:35.977Z,16.70
2023-02-23T19:41:06.643Z,17.23
2023-02-23T19:43:35.055Z,14.50
2023-02-23T19:46:05.422Z,14.05
2023-02-23T19:48:35.359Z,15.65
2023-02-23T19:51:04.428Z,14.32
2023-02-23T19:53:33.689Z,14.63
2023-02-23T19:56:03.803Z,16.88
2023-02-23T19:58:32.637Z,18.98
2023-02-23T20:01:05.493Z,19.10
2023-02-23T20:03:35.720Z,16.25
2023-02-23T20:06:06.812Z,17.33
2023-02-23T20:08:35.194Z,14.60
2023-02-23T20:11:07.246Z,14.45
2023-02-23T20:13:35.760Z,15.30
2023-02-23T20:16:05.427Z,14.68
2023-02-23T20:18:35.570Z,15.23
2023-02-23T20:21:09.115Z,15.80
2023-02-23T20:23:37.571Z,15.32
2023-02-23T20:26:07.079Z,18.05
2023-02-23T20:28:35.403Z,13.18
2023-02-23T20:31:04.346Z,14.27
2023-02-23T20:33:34.971Z,15.23
2023-02-23T20:36:03.227Z,13.00
2023-02-23T20:38:31.490Z,11.57
2023-02-23T20:41:03.396Z,12.23
2023-02-23T20:43:31.959Z,13.15
2023-02-23T20:46:01.316Z,11.43
2023-02-23T20:48:31.979Z,12.00
2023-02-23T20:51:02.525Z,11.63
2023-02-23T20:53:31.245Z,12.18
2023-02-23T20:55:59.631Z,11.38
2023-02-23T20:58:29.471Z,12.93
2023-02-23T21:01:01.612Z,11.98
2023-02-23T21:03:29.990Z,12.48
2023-02-23T21:05:58.308Z,13.55
2023-02-23T21:08:28.818Z,11.77
2023-02-23T21:10:57.511Z,12.98
2023-02-23T21:13:26.803Z,12.85
2023-02-23T21:16:01.157Z,13.73
2023-02-23T21:18:29.989Z,13.70
2023-02-23T21:21:06.629Z,13.15
2023-02-23T21:23:36.724Z,13.13
2023-02-23T21:26:14.312Z,14.77
2023-02-23T21:28:43.729Z,15.07
2023-02-23T21:31:13.467Z,13.50
2023-02-23T21:33:44.130Z,14.05
2023-02-23T21:36:13.155Z,13.80
2023-02-23T21:38:44.901Z,15.40
2023-02-23T21:41:15.124Z,19.60
2023-02-23T21:43:45.861Z,15.18
2023-02-23T21:46:16.752Z,14.50
2023-02-23T21:48:46.431Z,14.45
2023-02-23T21:51:16.636Z,12.52
2023-02-23T21:53:47.775Z,12.73
2023-02-23T21:56:18.179Z,13.88
2023-02-23T21:58:48.532Z,14.93
2023-02-23T22:01:19.365Z,14.93
2023-02-23T22:03:48.378Z,12.80
2023-02-23T22:06:18.780Z,13.43
2023-02-23T22:08:50.267Z,12.65
2023-02-23T22:11:20.947Z,13.80
2023-02-23T22:13:54.439Z,13.88
2023-02-23T22:16:23.708Z,12.63
2023-02-23T22:18:52.350Z,12.88
2023-02-23T22:21:22.336Z,12.50
2023-02-23T22:23:53.399Z,12.88
2023-02-23T22:26:21.703Z,12.63
2023-02-23T22:28:49.870Z,12.05
2023-02-23T22:31:18.589Z,11.93
2023-02-23T22:33:46.930Z,11.48
2023-02-23T22:36:18.719Z,11.65
2023-02-23T22:38:47.286Z,12.30
2023-02-23T22:41:17.470Z,13.75
2023-02-23T22:43:47.759Z,11.88
2023-02-23T22:46:17.262Z,11.02
2023-02-23T22:48:46.458Z,12.20
2023-02-23T22:51:16.301Z,12.05
2023-02-23T22:53:45.043Z,12.30
2023-02-23T22:56:13.953Z,11.60
2023-02-23T22:58:43.884Z,12.13
2023-02-23T23:01:12.908Z,11.35
2023-02-23T23:03:45.779Z,11.88
2023-02-23T23:06:16.539Z,11.45
2023-02-23T23:08:49.165Z,10.77
2023-02-23T23:11:20.013Z,10.80
2023-02-23T23:13:51.913Z,11.68
2023-02-23T23:16:31.480Z,12.05
2023-02-23T23:19:02.698Z,11.02
2023-02-23T23:21:32.901Z,12.27
2023-02-23T23:24:05.922Z,10.80
2023-02-23T23:26:36.546Z,9.93
2023-02-23T23:29:07.534Z,11.25
2023-02-23T23:31:36.443Z,10.85
2023-02-23T23:34:09.349Z,10.05
2023-02-23T23:36:42.797Z,11.55
2023-02-23T23:39:16.390Z,10.00
2023-02-23T23:41:48.005Z,9.68
2023-02-23T23:44:20.004Z,9.02
2023-02-23T23:46:50.752Z,10.73
2023-02-23T23:49:20.650Z,7.78
2023-02-23T23:51:51.235Z,9.38
2023-02-23T23:54:22.658Z,8.43
2023-02-23T23:56:51.803Z,8.82
2023-02-23T23:59:25.181Z,8.82
